NY19 weather

Walls Airport
Elbridge, New York, United States

Public forecast

Using degrees Fahrenheit for public forecast. Weather courtesy of forecast.io.

METAR (pilot weather report)

Closest report is Syracuse Hancock International Airport, 16.1 nm (29.8 km) ENE. Retrieved 2019/05/20 16:54 UTC (1 hour ago):

KSYR 201654Z 27009KT 10SM SCT045 BKN055 BKN085 23/14 A2973 RMK AO2 SLP060 T02330144

TAF (pilot weather forecast)

Closest forecast is Syracuse Hancock International Airport, 16.1 nm (29.8 km) ENE. Retrieved 2019/05/20 12:36 UTC (5 hours ago):

TAF KSYR 201134Z 2012/2112 23011KT P6SM BKN050 FM201500 27018G25KT P6SM BKN050 FM210200 27017G24KT P6SM OVC025 FM210800 28015G20KT P6SM OVC050